createdAt,value
2017-09-17T00:00:06.204Z,13.77
2017-09-17T00:00:32.356Z,13.79
2017-09-17T00:00:58.484Z,13.74
2017-09-17T00:01:24.613Z,13.77
2017-09-17T00:01:50.766Z,13.77
2017-09-17T00:02:16.895Z,13.71
2017-09-17T00:02:43.024Z,13.71
2017-09-17T00:03:09.155Z,13.71
2017-09-17T00:03:35.305Z,13.68
2017-09-17T00:04:01.457Z,13.71
2017-09-17T00:04:27.587Z,13.81
2017-09-17T00:04:53.715Z,13.74
2017-09-17T00:05:19.845Z,13.77
2017-09-17T00:05:45.975Z,13.67
2017-09-17T00:06:12.104Z,13.77
2017-09-17T00:06:38.233Z,13.79
2017-09-17T00:07:04.362Z,13.78
2017-09-17T00:07:30.493Z,13.74
2017-09-17T00:07:56.622Z,13.77
2017-09-17T00:08:22.752Z,13.78
2017-09-17T00:08:48.882Z,13.7
2017-09-17T00:09:15.042Z,13.77
2017-09-17T00:09:41.164Z,13.7
2017-09-17T00:10:07.292Z,13.62
2017-09-17T00:10:33.421Z,13.63
2017-09-17T00:10:59.550Z,13.63
2017-09-17T00:11:25.702Z,13.62
2017-09-17T00:11:51.832Z,13.67
2017-09-17T00:12:17.962Z,13.62
2017-09-17T00:12:44.091Z,13.67
2017-09-17T00:13:10.221Z,13.56
2017-09-17T00:13:36.351Z,13.63
2017-09-17T00:14:02.480Z,13.62
2017-09-17T00:14:28.611Z,13.65
2017-09-17T00:14:54.741Z,13.7
2017-09-17T00:15:20.874Z,13.68
2017-09-17T00:15:46.999Z,13.7
2017-09-17T00:16:13.129Z,13.62
2017-09-17T00:16:39.258Z,13.62
2017-09-17T00:17:05.388Z,13.63
2017-09-17T00:17:31.517Z,13.62
2017-09-17T00:17:57.647Z,13.6
2017-09-17T00:18:23.777Z,13.74
2017-09-17T00:18:49.907Z,13.68
2017-09-17T00:19:16.037Z,13.67
2017-09-17T00:19:42.166Z,13.71
2017-09-17T00:20:08.296Z,13.65
2017-09-17T00:20:34.426Z,13.6
2017-09-17T00:21:00.557Z,13.68
2017-09-17T00:21:26.683Z,13.59
2017-09-17T00:21:52.813Z,13.71
2017-09-17T00:22:18.943Z,13.63
2017-09-17T00:22:45.073Z,13.65
2017-09-17T00:23:11.203Z,13.68
2017-09-17T00:23:37.332Z,13.63
2017-09-17T00:24:03.462Z,13.65
2017-09-17T00:24:29.591Z,13.6
2017-09-17T00:24:55.720Z,13.59
2017-09-17T00:25:21.850Z,13.62
2017-09-17T00:25:47.980Z,13.56
2017-09-17T00:26:14.109Z,13.52
2017-09-17T00:26:40.238Z,13.54
2017-09-17T00:27:06.369Z,13.52
2017-09-17T00:27:32.498Z,13.52
2017-09-17T00:27:58.627Z,13.42
2017-09-17T00:28:24.777Z,13.44
2017-09-17T00:28:50.907Z,13.5
2017-09-17T00:29:17.037Z,13.52
2017-09-17T00:29:43.165Z,13.39
2017-09-17T00:30:09.296Z,13.44
2017-09-17T00:30:35.426Z,13.37
2017-09-17T00:31:01.557Z,13.37
2017-09-17T00:31:27.684Z,13.38
2017-09-17T00:31:53.815Z,13.38
2017-09-17T00:32:19.944Z,13.46
2017-09-17T00:32:46.074Z,13.33
2017-09-17T00:33:12.226Z,13.38
2017-09-17T00:33:38.355Z,13.3
2017-09-17T00:34:04.485Z,13.33
2017-09-17T00:34:30.615Z,13.47
2017-09-17T00:34:56.748Z,13.39
2017-09-17T00:35:22.875Z,13.42
2017-09-17T00:35:49.006Z,13.41
2017-09-17T00:36:15.135Z,13.38
2017-09-17T00:36:41.264Z,13.37
2017-09-17T00:37:07.394Z,13.3
2017-09-17T00:37:33.522Z,13.25
2017-09-17T00:37:59.651Z,13.3
2017-09-17T00:38:25.780Z,13.31
2017-09-17T00:38:51.910Z,13.39
2017-09-17T00:39:18.063Z,13.39
2017-09-17T00:39:44.191Z,13.37
2017-09-17T00:40:10.319Z,13.41
2017-09-17T00:40:36.449Z,13.39
2017-09-17T00:41:02.602Z,13.35
2017-09-17T00:41:28.732Z,13.33
2017-09-17T00:41:54.861Z,13.31
2017-09-17T00:42:20.991Z,13.22
2017-09-17T00:42:47.121Z,13.3
2017-09-17T00:43:13.250Z,13.23
2017-09-17T00:43:39.381Z,13.25
2017-09-17T00:44:05.530Z,13.31
2017-09-17T00:44:31.666Z,13.25
2017-09-17T00:44:57.827Z,13.31
2017-09-17T00:45:23.989Z,13.3
2017-09-17T00:45:50.146Z,13.25
2017-09-17T00:46:16.307Z,13.27
2017-09-17T00:46:42.469Z,13.27
2017-09-17T00:47:08.630Z,13.3
2017-09-17T00:47:34.793Z,13.22
2017-09-17T00:48:00.954Z,13.23
2017-09-17T00:48:27.116Z,13.31
2017-09-17T00:48:53.276Z,13.35
2017-09-17T00:49:19.435Z,13.23
2017-09-17T00:49:45.595Z,13.25
2017-09-17T00:50:11.755Z,13.28
2017-09-17T00:50:37.915Z,13.27
2017-09-17T00:51:04.076Z,13.25
2017-09-17T00:51:30.237Z,13.3
2017-09-17T00:51:56.399Z,13.31
2017-09-17T00:52:22.558Z,13.3
2017-09-17T00:52:48.719Z,13.44
2017-09-17T00:53:14.881Z,13.37
2017-09-17T00:53:41.044Z,13.28
2017-09-17T00:54:07.260Z,13.41
2017-09-17T00:54:33.449Z,13.33
2017-09-17T00:54:59.610Z,13.39
2017-09-17T00:55:25.781Z,13.35
2017-09-17T00:55:51.932Z,13.46
2017-09-17T00:56:18.121Z,13.37
2017-09-17T00:56:44.281Z,13.39
2017-09-17T00:57:10.442Z,13.39
2017-09-17T00:57:36.601Z,13.28
2017-09-17T00:58:02.764Z,13.41
2017-09-17T00:58:28.925Z,13.37
2017-09-17T00:58:55.088Z,13.39
2017-09-17T00:59:21.250Z,13.33
2017-09-17T00:59:47.412Z,13.42
2017-09-17T01:00:13.573Z,13.31
2017-09-17T01:00:39.735Z,13.23
2017-09-17T01:01:05.895Z,13.31
2017-09-17T01:01:32.058Z,13.3
2017-09-17T01:01:58.218Z,13.28
2017-09-17T01:02:24.379Z,13.27
2017-09-17T01:02:50.541Z,13.31
2017-09-17T01:03:16.702Z,13.33
2017-09-17T01:03:42.865Z,13.23
2017-09-17T01:04:09.027Z,13.25
2017-09-17T01:04:35.189Z,13.31
2017-09-17T01:05:01.350Z,13.11
2017-09-17T01:05:27.510Z,13.19
2017-09-17T01:05:53.672Z,13.09
2017-09-17T01:06:19.833Z,13.08
2017-09-17T01:06:45.994Z,13.13
2017-09-17T01:07:12.155Z,13.04
2017-09-17T01:07:38.318Z,13.16
2017-09-17T01:08:04.510Z,13.16
2017-09-17T01:08:30.669Z,13.12
2017-09-17T01:08:56.831Z,13.2
2017-09-17T01:09:23.021Z,13.2
2017-09-17T01:09:49.182Z,13.11
2017-09-17T01:10:15.345Z,13.18
2017-09-17T01:10:41.505Z,13.2
2017-09-17T01:11:07.668Z,13.19
2017-09-17T01:11:33.830Z,13.16
2017-09-17T01:11:59.989Z,13.18
2017-09-17T01:12:26.153Z,13.2
2017-09-17T01:12:52.343Z,13.11
2017-09-17T01:13:18.503Z,13.09
2017-09-17T01:13:44.665Z,13.15
2017-09-17T01:14:10.824Z,13.2
2017-09-17T01:14:36.985Z,13.13
2017-09-17T01:15:03.145Z,13.15
2017-09-17T01:15:29.332Z,13.11
2017-09-17T01:15:55.494Z,13.15
2017-09-17T01:16:21.654Z,13.05
2017-09-17T01:16:47.832Z,13.04
2017-09-17T01:17:13.975Z,13.12
2017-09-17T01:17:40.137Z,13.09
2017-09-17T01:18:06.300Z,13.01
2017-09-17T01:18:32.461Z,13.11
2017-09-17T01:18:58.621Z,13.11
2017-09-17T01:19:24.781Z,13.05
2017-09-17T01:19:50.941Z,13.04
2017-09-17T01:20:17.134Z,13
2017-09-17T01:20:43.320Z,12.95
2017-09-17T01:21:09.482Z,12.98
2017-09-17T01:21:35.642Z,12.97
2017-09-17T01:22:01.804Z,13
2017-09-17T01:22:27.966Z,13.01
2017-09-17T01:22:54.127Z,13.08
2017-09-17T01:23:20.287Z,13.04
2017-09-17T01:23:46.447Z,13
2017-09-17T01:24:12.608Z,13
2017-09-17T01:24:38.776Z,13.09
2017-09-17T01:25:04.930Z,13.03
2017-09-17T01:25:31.093Z,13.11
2017-09-17T01:25:57.254Z,13
2017-09-17T01:26:23.416Z,13.11
2017-09-17T01:26:49.576Z,13.08
2017-09-17T01:27:15.736Z,13.08
2017-09-17T01:27:41.897Z,13.13
2017-09-17T01:28:08.059Z,13.12
2017-09-17T01:28:34.220Z,13.11
2017-09-17T01:29:00.380Z,13.18
2017-09-17T01:29:26.546Z,13.09
2017-09-17T01:29:52.703Z,13.05
2017-09-17T01:30:18.865Z,13.13
2017-09-17T01:30:45.028Z,13.15
2017-09-17T01:31:11.189Z,13.16
2017-09-17T01:31:37.352Z,13.08
2017-09-17T01:32:03.512Z,13.03
2017-09-17T01:32:29.672Z,13.15
2017-09-17T01:32:55.833Z,13.11
2017-09-17T01:33:21.993Z,13.04
2017-09-17T01:33:48.153Z,13.11
2017-09-17T01:34:14.342Z,13.15
2017-09-17T01:34:40.503Z,13.08
2017-09-17T01:35:06.664Z,13.05
2017-09-17T01:35:32.828Z,13.11
2017-09-17T01:35:58.991Z,13.12
2017-09-17T01:36:25.183Z,13.13
2017-09-17T01:36:51.344Z,13.04
2017-09-17T01:37:17.505Z,13.08
2017-09-17T01:37:43.665Z,13.04
2017-09-17T01:38:09.827Z,13.05
2017-09-17T01:38:35.988Z,13
2017-09-17T01:39:02.149Z,12.98
2017-09-17T01:39:28.311Z,12.86
2017-09-17T01:39:54.472Z,12.9
2017-09-17T01:40:20.633Z,12.93
2017-09-17T01:40:46.796Z,12.79
2017-09-17T01:41:12.957Z,12.82
2017-09-17T01:41:39.117Z,12.8
2017-09-17T01:42:05.278Z,12.82
2017-09-17T01:42:31.471Z,12.83
2017-09-17T01:42:57.631Z,12.78
2017-09-17T01:43:23.792Z,12.85
2017-09-17T01:43:49.952Z,12.7
2017-09-17T01:44:16.115Z,12.75
2017-09-17T01:44:42.275Z,12.79
2017-09-17T01:45:08.436Z,12.82
2017-09-17T01:45:34.599Z,12.79
2017-09-17T01:46:00.758Z,12.83
2017-09-17T01:46:26.920Z,12.75
2017-09-17T01:46:53.081Z,12.8
2017-09-17T01:47:19.241Z,12.82
2017-09-17T01:47:45.401Z,12.68
2017-09-17T01:48:11.562Z,12.83
2017-09-17T01:48:37.753Z,12.73
2017-09-17T01:49:03.912Z,12.64
2017-09-17T01:49:30.103Z,12.73
2017-09-17T01:49:56.263Z,12.72
2017-09-17T01:50:22.426Z,12.6
2017-09-17T01:50:48.589Z,12.53
2017-09-17T01:51:14.750Z,12.6
2017-09-17T01:51:40.910Z,12.58
2017-09-17T01:52:07.070Z,12.61
2017-09-17T01:52:33.233Z,12.62
2017-09-17T01:52:59.393Z,12.64
2017-09-17T01:53:25.553Z,12.68
2017-09-17T01:53:51.715Z,12.75
2017-09-17T01:54:17.877Z,12.61
2017-09-17T01:54:44.066Z,12.73
2017-09-17T01:55:10.229Z,12.73
2017-09-17T01:55:36.390Z,12.68
2017-09-17T01:56:02.552Z,12.76
2017-09-17T01:56:28.714Z,12.83
2017-09-17T01:56:54.876Z,12.76
2017-09-17T01:57:21.038Z,12.73
2017-09-17T01:57:47.226Z,12.65
2017-09-17T01:58:13.387Z,12.75
2017-09-17T01:58:39.549Z,12.7
2017-09-17T01:59:05.711Z,12.72
2017-09-17T01:59:31.869Z,12.68
2017-09-17T01:59:58.059Z,12.76
2017-09-17T02:00:24.219Z,12.75
2017-09-17T02:00:50.382Z,12.73
2017-09-17T02:01:16.543Z,12.7
2017-09-17T02:01:42.704Z,12.72
2017-09-17T02:02:08.866Z,12.7
2017-09-17T02:02:35.028Z,12.72
2017-09-17T02:03:01.189Z,12.75
2017-09-17T02:03:27.349Z,12.72
2017-09-17T02:03:53.510Z,12.75
2017-09-17T02:04:19.671Z,12.7
2017-09-17T02:04:45.833Z,12.68
2017-09-17T02:05:11.996Z,12.68
2017-09-17T02:05:38.154Z,12.67
2017-09-17T02:06:04.313Z,12.75
2017-09-17T02:06:30.473Z,12.7
2017-09-17T02:06:56.634Z,12.62
2017-09-17T02:07:22.795Z,12.67
2017-09-17T02:07:48.956Z,12.7
2017-09-17T02:08:15.118Z,12.58
2017-09-17T02:08:41.278Z,12.58
2017-09-17T02:09:07.438Z,12.64
2017-09-17T02:09:33.600Z,12.73
2017-09-17T02:09:59.759Z,12.7
2017-09-17T02:10:25.920Z,12.68
2017-09-17T02:10:52.108Z,12.67
2017-09-17T02:11:18.268Z,12.72
2017-09-17T02:11:44.458Z,12.67
2017-09-17T02:12:10.649Z,12.64
2017-09-17T02:12:36.838Z,12.7
2017-09-17T02:13:03.004Z,12.72
2017-09-17T02:13:29.191Z,12.7
2017-09-17T02:13:55.380Z,12.57
2017-09-17T02:14:21.539Z,12.62
2017-09-17T02:14:47.700Z,12.67
2017-09-17T02:15:13.859Z,12.64
2017-09-17T02:15:40.019Z,12.64
2017-09-17T02:16:06.180Z,12.68
2017-09-17T02:16:32.340Z,12.72
2017-09-17T02:16:58.499Z,12.67
2017-09-17T02:17:24.660Z,12.7
2017-09-17T02:17:50.821Z,12.61
2017-09-17T02:18:16.983Z,12.68
2017-09-17T02:18:43.144Z,12.62
2017-09-17T02:19:09.305Z,12.62
2017-09-17T02:19:35.464Z,12.5
2017-09-17T02:20:01.631Z,12.53
2017-09-17T02:20:27.789Z,12.49
2017-09-17T02:20:53.978Z,12.47
2017-09-17T02:21:20.139Z,12.54
2017-09-17T02:21:46.301Z,12.54
2017-09-17T02:22:12.462Z,12.55
2017-09-17T02:22:38.622Z,12.5
2017-09-17T02:23:04.789Z,12.5
2017-09-17T02:23:30.972Z,12.5
2017-09-17T02:23:57.135Z,12.5
2017-09-17T02:24:23.293Z,12.42
2017-09-17T02:24:49.474Z,12.46
2017-09-17T02:25:15.613Z,12.45
2017-09-17T02:25:41.776Z,12.49
2017-09-17T02:26:07.934Z,12.53
2017-09-17T02:26:34.096Z,12.46
2017-09-17T02:27:00.256Z,12.5
2017-09-17T02:27:26.416Z,12.53
2017-09-17T02:27:52.577Z,12.53
2017-09-17T02:28:18.737Z,12.53
2017-09-17T02:28:44.929Z,12.49
2017-09-17T02:29:11.117Z,12.47
2017-09-17T02:29:37.279Z,12.49
2017-09-17T02:30:03.439Z,12.53
2017-09-17T02:30:29.600Z,12.49
2017-09-17T02:30:55.761Z,12.53
2017-09-17T02:31:21.920Z,12.47
2017-09-17T02:31:48.082Z,12.45
2017-09-17T02:32:14.243Z,12.53
2017-09-17T02:32:40.405Z,12.45
2017-09-17T02:33:06.565Z,12.53
2017-09-17T02:33:32.725Z,12.53
2017-09-17T02:33:58.885Z,12.54
2017-09-17T02:34:25.046Z,12.54
2017-09-17T02:34:51.207Z,12.5
2017-09-17T02:35:17.370Z,12.5
2017-09-17T02:35:43.533Z,12.49
2017-09-17T02:36:09.721Z,12.61
2017-09-17T02:36:35.912Z,12.54
2017-09-17T02:37:02.072Z,12.49
2017-09-17T02:37:28.258Z,12.53
2017-09-17T02:37:54.447Z,12.53
2017-09-17T02:38:20.606Z,12.46
2017-09-17T02:38:46.766Z,12.46
2017-09-17T02:39:12.927Z,12.47
2017-09-17T02:39:39.088Z,12.5
2017-09-17T02:40:05.250Z,12.55
2017-09-17T02:40:31.412Z,12.58
2017-09-17T02:40:57.581Z,12.55
2017-09-17T02:41:23.736Z,12.53
2017-09-17T02:41:49.898Z,12.54
2017-09-17T02:42:16.058Z,12.61
2017-09-17T02:42:42.221Z,12.58
2017-09-17T02:43:08.381Z,12.64
2017-09-17T02:43:34.570Z,12.53
2017-09-17T02:44:00.733Z,12.45
2017-09-17T02:44:26.892Z,12.49
2017-09-17T02:44:53.053Z,12.47
2017-09-17T02:45:19.241Z,12.5
2017-09-17T02:45:45.403Z,12.46
2017-09-17T02:46:11.564Z,12.49
2017-09-17T02:46:37.724Z,12.47
2017-09-17T02:47:03.886Z,12.47
2017-09-17T02:47:30.077Z,12.43
2017-09-17T02:47:56.268Z,12.43
2017-09-17T02:48:22.429Z,12.43
2017-09-17T02:48:48.589Z,12.4
2017-09-17T02:49:14.779Z,12.37
2017-09-17T02:49:40.941Z,12.32
2017-09-17T02:50:07.104Z,12.37
2017-09-17T02:50:33.264Z,12.35
2017-09-17T02:50:59.427Z,12.25
2017-09-17T02:51:25.587Z,12.22
2017-09-17T02:51:51.749Z,12.29
2017-09-17T02:52:17.909Z,12.35
2017-09-17T02:52:44.069Z,12.28
2017-09-17T02:53:10.236Z,12.25
2017-09-17T02:53:36.393Z,12.28
2017-09-17T02:54:02.556Z,12.25
2017-09-17T02:54:28.717Z,12.24
2017-09-17T02:54:54.905Z,12.22
2017-09-17T02:55:21.066Z,12.15
2017-09-17T02:55:47.227Z,12.07
2017-09-17T02:56:13.386Z,12.07
2017-09-17T02:56:39.546Z,12.12
2017-09-17T02:57:05.706Z,12.09
2017-09-17T02:57:31.868Z,12.13
2017-09-17T02:57:58.027Z,12.07
2017-09-17T02:58:24.191Z,12.2
2017-09-17T02:58:50.350Z,12.18
2017-09-17T02:59:16.511Z,12.22
2017-09-17T02:59:42.676Z,12.17
2017-09-17T03:00:08.862Z,12.27
2017-09-17T03:00:35.020Z,12.24
2017-09-17T03:01:01.180Z,12.27
2017-09-17T03:01:27.340Z,12.32
2017-09-17T03:01:53.500Z,12.32
2017-09-17T03:02:19.692Z,12.27
2017-09-17T03:02:45.853Z,12.35
2017-09-17T03:03:12.013Z,12.4
2017-09-17T03:03:38.174Z,12.32
2017-09-17T03:04:04.338Z,12.25
2017-09-17T03:04:30.498Z,12.37
2017-09-17T03:04:56.661Z,12.43
2017-09-17T03:05:22.823Z,12.4
2017-09-17T03:05:48.982Z,12.45
2017-09-17T03:06:15.144Z,12.46
2017-09-17T03:06:41.306Z,12.45
2017-09-17T03:07:07.470Z,12.49
2017-09-17T03:07:33.632Z,12.53
2017-09-17T03:07:59.792Z,12.43
2017-09-17T03:08:25.952Z,12.39
2017-09-17T03:08:52.114Z,12.32
2017-09-17T03:09:18.276Z,12.35
2017-09-17T03:09:44.435Z,12.31
2017-09-17T03:10:10.625Z,12.17
2017-09-17T03:10:36.786Z,12.25
2017-09-17T03:11:02.946Z,12.32
2017-09-17T03:11:29.107Z,12.24
2017-09-17T03:11:55.268Z,12.24
2017-09-17T03:12:21.429Z,12.2
2017-09-17T03:12:47.590Z,12.36
2017-09-17T03:13:13.753Z,12.24
2017-09-17T03:13:39.915Z,12.27
2017-09-17T03:14:06.076Z,12.4
2017-09-17T03:14:32.236Z,12.32
2017-09-17T03:14:58.401Z,12.36
2017-09-17T03:15:24.558Z,12.39
2017-09-17T03:15:50.718Z,12.39
2017-09-17T03:16:16.879Z,12.36
2017-09-17T03:16:43.041Z,12.36
2017-09-17T03:17:09.205Z,12.35
2017-09-17T03:17:35.364Z,12.36
2017-09-17T03:18:01.524Z,12.32
2017-09-17T03:18:27.686Z,12.28
2017-09-17T03:18:53.849Z,12.36
2017-09-17T03:19:20.008Z,12.42
2017-09-17T03:19:46.170Z,12.39
2017-09-17T03:20:12.331Z,12.36
2017-09-17T03:20:38.491Z,12.31
2017-09-17T03:21:04.652Z,12.28
2017-09-17T03:21:30.813Z,12.4
2017-09-17T03:21:57.004Z,12.37
2017-09-17T03:22:23.165Z,12.29
2017-09-17T03:22:49.326Z,12.35
2017-09-17T03:23:15.486Z,12.32
2017-09-17T03:23:41.647Z,12.35
2017-09-17T03:24:07.808Z,12.35
2017-09-17T03:24:33.969Z,12.4
2017-09-17T03:25:00.131Z,12.37
2017-09-17T03:25:26.291Z,12.35
2017-09-17T03:25:52.451Z,12.4
2017-09-17T03:26:18.613Z,12.46
2017-09-17T03:26:44.777Z,12.43
2017-09-17T03:27:10.938Z,12.45
2017-09-17T03:27:37.103Z,12.5
2017-09-17T03:28:03.291Z,12.39
2017-09-17T03:28:29.452Z,12.4
2017-09-17T03:28:55.612Z,12.4
2017-09-17T03:29:21.774Z,12.37
2017-09-17T03:29:47.936Z,12.43
2017-09-17T03:30:14.097Z,12.43
2017-09-17T03:30:40.257Z,12.47
2017-09-17T03:31:06.418Z,12.47
2017-09-17T03:31:32.577Z,12.47
2017-09-17T03:31:58.739Z,12.47
2017-09-17T03:32:24.900Z,12.47
2017-09-17T03:32:51.091Z,12.45
2017-09-17T03:33:17.251Z,12.45
2017-09-17T03:33:43.411Z,12.49
2017-09-17T03:34:09.572Z,12.47
2017-09-17T03:34:35.731Z,12.47
2017-09-17T03:35:01.901Z,12.43
2017-09-17T03:35:28.057Z,12.4
2017-09-17T03:35:54.220Z,12.5
2017-09-17T03:36:20.380Z,12.45
2017-09-17T03:36:46.540Z,12.4
2017-09-17T03:37:12.707Z,12.28
2017-09-17T03:37:38.863Z,12.36
2017-09-17T03:38:05.054Z,12.37
2017-09-17T03:38:31.220Z,12.27
2017-09-17T03:38:57.377Z,12.2
2017-09-17T03:39:23.538Z,12.31
2017-09-17T03:39:49.698Z,12.2
2017-09-17T03:40:15.886Z,12.24
2017-09-17T03:40:42.049Z,12.17
2017-09-17T03:41:08.208Z,12.12
2017-09-17T03:41:34.370Z,12.24
2017-09-17T03:42:00.530Z,12.2
2017-09-17T03:42:26.691Z,12.18
2017-09-17T03:42:52.854Z,12.15
2017-09-17T03:43:19.044Z,12.15
2017-09-17T03:43:45.203Z,12.22
2017-09-17T03:44:11.365Z,12.24
2017-09-17T03:44:37.525Z,12.27
2017-09-17T03:45:03.685Z,12.24
2017-09-17T03:45:29.844Z,12.17
2017-09-17T03:45:56.004Z,12.2
2017-09-17T03:46:22.165Z,12.18
2017-09-17T03:46:48.326Z,12.21
2017-09-17T03:47:14.488Z,12.17
2017-09-17T03:47:40.675Z,12.17
2017-09-17T03:48:06.834Z,12.15
2017-09-17T03:48:32.994Z,12.25
2017-09-17T03:48:59.153Z,12.06
2017-09-17T03:49:25.315Z,12.17
2017-09-17T03:49:51.493Z,12.21
2017-09-17T03:50:17.639Z,12.1
2017-09-17T03:50:43.798Z,12.15
2017-09-17T03:51:09.958Z,12.09
2017-09-17T03:51:36.119Z,12.07
2017-09-17T03:52:02.280Z,12.12
2017-09-17T03:52:28.442Z,12.12
2017-09-17T03:52:54.602Z,12.22
2017-09-17T03:53:20.765Z,12.21
2017-09-17T03:53:46.927Z,12.12
2017-09-17T03:54:13.087Z,12.2
2017-09-17T03:54:39.247Z,12.21
2017-09-17T03:55:05.409Z,12.22
2017-09-17T03:55:31.570Z,12.24
2017-09-17T03:55:57.731Z,12.17
2017-09-17T03:56:23.891Z,12.21
2017-09-17T03:56:50.058Z,12.25
2017-09-17T03:57:16.216Z,12.22
2017-09-17T03:57:42.377Z,12.22
2017-09-17T03:58:08.537Z,12.17
2017-09-17T03:58:34.698Z,12.1
2017-09-17T03:59:00.859Z,12.24
2017-09-17T03:59:27.020Z,12.21
2017-09-17T03:59:53.178Z,12.25
2017-09-17T04:00:19.341Z,12.07
2017-09-17T04:00:45.502Z,12.24
2017-09-17T04:01:11.666Z,12.1
2017-09-17T04:01:37.854Z,12.2
2017-09-17T04:02:04.014Z,12.17
2017-09-17T04:02:30.175Z,12.15
2017-09-17T04:02:56.336Z,12.09
2017-09-17T04:03:22.498Z,12.12
2017-09-17T04:03:48.658Z,12.15
2017-09-17T04:04:14.818Z,12.1
2017-09-17T04:04:40.980Z,12.1
2017-09-17T04:05:07.141Z,12.13
2017-09-17T04:05:33.302Z,12.1
2017-09-17T04:05:59.463Z,11.97
2017-09-17T04:06:25.625Z,12.02
2017-09-17T04:06:51.786Z,11.99
2017-09-17T04:07:17.945Z,12.06
2017-09-17T04:07:44.106Z,11.95
2017-09-17T04:08:10.266Z,11.94
2017-09-17T04:08:36.426Z,11.9
2017-09-17T04:09:02.589Z,11.91
2017-09-17T04:09:28.750Z,11.84
2017-09-17T04:09:54.910Z,11.81
2017-09-17T04:10:21.072Z,11.75
2017-09-17T04:10:47.235Z,11.78
2017-09-17T04:11:13.394Z,11.81
2017-09-17T04:11:39.555Z,11.78
2017-09-17T04:12:05.716Z,11.84
2017-09-17T04:12:31.877Z,11.84
2017-09-17T04:12:58.039Z,11.87
2017-09-17T04:13:24.204Z,11.86
2017-09-17T04:13:50.391Z,11.78
2017-09-17T04:14:16.551Z,11.78
2017-09-17T04:14:42.711Z,11.8
2017-09-17T04:15:08.871Z,11.72
2017-09-17T04:15:35.061Z,11.77
2017-09-17T04:16:01.223Z,11.75
2017-09-17T04:16:27.411Z,11.66
2017-09-17T04:16:53.571Z,11.62
2017-09-17T04:17:19.732Z,11.69
2017-09-17T04:17:45.891Z,11.72
2017-09-17T04:18:12.052Z,11.65
2017-09-17T04:18:38.214Z,11.63
2017-09-17T04:19:04.378Z,11.68
2017-09-17T04:19:30.593Z,11.63
2017-09-17T04:19:56.754Z,11.54
2017-09-17T04:20:22.943Z,11.57
2017-09-17T04:20:49.103Z,11.5
2017-09-17T04:21:15.263Z,11.66
2017-09-17T04:21:41.452Z,11.62
2017-09-17T04:22:07.614Z,11.65
2017-09-17T04:22:33.773Z,11.68
2017-09-17T04:22:59.935Z,11.6
2017-09-17T04:23:26.095Z,11.55
2017-09-17T04:23:52.255Z,11.62
2017-09-17T04:24:18.419Z,11.6
2017-09-17T04:24:44.579Z,11.6
2017-09-17T04:25:10.739Z,11.62
2017-09-17T04:25:36.898Z,11.63
2017-09-17T04:26:03.059Z,11.65
2017-09-17T04:26:29.218Z,11.63
2017-09-17T04:26:55.381Z,11.66
2017-09-17T04:27:21.542Z,11.63
2017-09-17T04:27:47.735Z,11.66
2017-09-17T04:28:13.895Z,11.66
2017-09-17T04:28:40.055Z,11.7
2017-09-17T04:29:06.214Z,11.72
2017-09-17T04:29:32.377Z,11.66
2017-09-17T04:29:58.563Z,11.68
2017-09-17T04:30:24.724Z,11.72
2017-09-17T04:30:50.884Z,11.7
2017-09-17T04:31:17.047Z,11.75
2017-09-17T04:31:43.210Z,11.8
2017-09-17T04:32:09.373Z,11.75
2017-09-17T04:32:35.536Z,11.7
2017-09-17T04:33:01.697Z,11.69
2017-09-17T04:33:27.858Z,11.68
2017-09-17T04:33:54.017Z,11.75
2017-09-17T04:34:20.177Z,11.75
2017-09-17T04:34:46.337Z,11.63
2017-09-17T04:35:12.499Z,11.62
2017-09-17T04:35:38.661Z,11.63
2017-09-17T04:36:04.821Z,11.62
2017-09-17T04:36:31.011Z,11.59
2017-09-17T04:36:57.171Z,11.54
2017-09-17T04:37:23.358Z,11.63
2017-09-17T04:37:49.491Z,11.55
2017-09-17T04:38:15.651Z,11.5
2017-09-17T04:38:41.840Z,11.52
2017-09-17T04:39:08.001Z,11.52
2017-09-17T04:39:34.163Z,11.6
2017-09-17T04:40:00.353Z,11.6
2017-09-17T04:40:26.514Z,11.59
2017-09-17T04:40:52.704Z,11.54
2017-09-17T04:41:18.864Z,11.55
2017-09-17T04:41:45.024Z,11.55
2017-09-17T04:42:11.185Z,11.54
2017-09-17T04:42:37.374Z,11.6
2017-09-17T04:43:03.534Z,11.55
2017-09-17T04:43:29.694Z,11.63
2017-09-17T04:43:55.883Z,11.5
2017-09-17T04:44:22.071Z,11.55
2017-09-17T04:44:48.260Z,11.54
2017-09-17T04:45:14.421Z,11.47
2017-09-17T04:45:40.581Z,11.59
2017-09-17T04:46:06.771Z,11.59
2017-09-17T04:46:32.931Z,11.63
2017-09-17T04:46:59.092Z,11.59
2017-09-17T04:47:25.282Z,11.62
2017-09-17T04:47:51.441Z,11.7
2017-09-17T04:48:17.601Z,11.55
2017-09-17T04:48:43.761Z,11.65
2017-09-17T04:49:09.921Z,11.66
2017-09-17T04:49:36.083Z,11.6
2017-09-17T04:50:02.244Z,11.68
2017-09-17T04:50:28.410Z,11.68
2017-09-17T04:50:54.564Z,11.73
2017-09-17T04:51:20.725Z,11.73
2017-09-17T04:51:46.886Z,11.75
2017-09-17T04:52:13.047Z,11.68
2017-09-17T04:52:39.206Z,11.78
2017-09-17T04:53:05.368Z,11.75
2017-09-17T04:53:31.527Z,11.78
2017-09-17T04:53:57.718Z,11.75
2017-09-17T04:54:23.878Z,11.75
2017-09-17T04:54:50.069Z,11.77
2017-09-17T04:55:16.229Z,11.78
2017-09-17T04:55:42.390Z,11.73
2017-09-17T04:56:08.551Z,11.81
2017-09-17T04:56:34.712Z,11.73
2017-09-17T04:57:00.874Z,11.78
2017-09-17T04:57:27.034Z,11.77
2017-09-17T04:57:53.198Z,11.65
2017-09-17T04:58:19.358Z,11.65
2017-09-17T04:58:45.518Z,11.65
2017-09-17T04:59:11.679Z,11.6
2017-09-17T04:59:37.839Z,11.69
2017-09-17T05:00:03.998Z,11.63
2017-09-17T05:00:30.166Z,11.65
2017-09-17T05:00:56.348Z,11.55
2017-09-17T05:01:22.509Z,11.57
2017-09-17T05:01:48.675Z,11.54
2017-09-17T05:02:14.867Z,11.45
2017-09-17T05:02:41.028Z,11.57
2017-09-17T05:03:07.193Z,11.5
2017-09-17T05:03:33.357Z,11.47
2017-09-17T05:03:59.522Z,11.48
2017-09-17T05:04:26.003Z,11.48
2017-09-17T05:04:52.166Z,11.47
2017-09-17T05:05:18.329Z,11.48
2017-09-17T05:05:44.491Z,11.5
2017-09-17T05:06:10.653Z,11.47
2017-09-17T05:06:36.816Z,11.48
2017-09-17T05:07:02.978Z,11.47
2017-09-17T05:07:29.363Z,11.54
2017-09-17T05:07:55.563Z,11.48
2017-09-17T05:08:21.724Z,11.48
2017-09-17T05:08:47.923Z,11.45
2017-09-17T05:09:14.049Z,11.41
2017-09-17T05:09:40.239Z,11.35
2017-09-17T05:10:06.402Z,11.4
2017-09-17T05:10:32.566Z,11.36
2017-09-17T05:10:58.730Z,11.36
2017-09-17T05:11:24.892Z,11.4
2017-09-17T05:11:51.056Z,11.35
2017-09-17T05:12:17.220Z,11.37
2017-09-17T05:12:43.381Z,11.35
2017-09-17T05:13:09.543Z,11.33
2017-09-17T05:13:35.707Z,11.41
2017-09-17T05:14:01.872Z,11.41
2017-09-17T05:14:28.064Z,11.4
2017-09-17T05:14:54.224Z,11.47
2017-09-17T05:15:20.386Z,11.45
2017-09-17T05:15:46.548Z,11.44
2017-09-17T05:16:12.709Z,11.47
2017-09-17T05:16:38.874Z,11.37
2017-09-17T05:17:05.063Z,11.43
2017-09-17T05:17:31.225Z,11.41
2017-09-17T05:17:57.379Z,11.41
2017-09-17T05:18:23.859Z,11.47
2017-09-17T05:18:50.053Z,11.47
2017-09-17T05:19:16.214Z,11.47
2017-09-17T05:19:42.377Z,11.44
2017-09-17T05:20:08.537Z,11.48
2017-09-17T05:20:34.727Z,11.65
2017-09-17T05:21:00.889Z,11.5
2017-09-17T05:21:27.081Z,11.57
2017-09-17T05:21:53.241Z,11.52
2017-09-17T05:22:19.403Z,11.51
2017-09-17T05:22:45.564Z,11.59
2017-09-17T05:23:11.728Z,11.57
2017-09-17T05:23:37.888Z,11.6
2017-09-17T05:24:04.051Z,11.59
2017-09-17T05:24:30.213Z,11.59
2017-09-17T05:24:56.377Z,11.69
2017-09-17T05:25:22.539Z,11.7
2017-09-17T05:25:48.703Z,11.7
2017-09-17T05:26:14.895Z,11.78
2017-09-17T05:26:41.060Z,11.66
2017-09-17T05:27:07.224Z,11.78
2017-09-17T05:27:33.388Z,11.8
2017-09-17T05:27:59.551Z,11.81
2017-09-17T05:28:25.714Z,11.86
2017-09-17T05:28:51.877Z,11.81
2017-09-17T05:29:18.040Z,11.83
2017-09-17T05:29:44.239Z,11.78
2017-09-17T05:30:10.399Z,11.75
2017-09-17T05:30:36.564Z,11.8
2017-09-17T05:31:02.723Z,11.81
2017-09-17T05:31:28.885Z,11.7
2017-09-17T05:31:55.049Z,11.83
2017-09-17T05:32:21.213Z,11.7
2017-09-17T05:32:47.374Z,11.81
2017-09-17T05:33:13.539Z,11.78
2017-09-17T05:33:39.700Z,11.75
2017-09-17T05:34:05.891Z,11.73
2017-09-17T05:34:32.026Z,11.86
2017-09-17T05:34:58.188Z,11.83
2017-09-17T05:35:24.352Z,11.86
2017-09-17T05:35:50.514Z,11.81
2017-09-17T05:36:16.675Z,11.91
2017-09-17T05:36:42.837Z,12.07
2017-09-17T05:37:08.997Z,12.17
2017-09-17T05:37:35.160Z,12.25
2017-09-17T05:38:01.322Z,12.27
2017-09-17T05:38:27.483Z,12.36